sensor_id;sensor_type;location;lat;lon;timestamp;pressure;altitude;pressure_sealevel;temperature;humidity
34177;BME280;20450;49.074;9.158;2023-03-25T00:02:18;99147.19;;;10.41;75.57
34177;BME280;20450;49.074;9.158;2023-03-25T00:04:49;99149.22;;;10.45;74.70
34177;BME280;20450;49.074;9.158;2023-03-25T00:07:17;99148.16;;;10.46;74.82
34177;BME280;20450;49.074;9.158;2023-03-25T00:09:44;99148.47;;;10.56;73.58
34177;BME280;20450;49.074;9.158;2023-03-25T00:12:12;99158.81;;;10.59;74.30
34177;BME280;20450;49.074;9.158;2023-03-25T00:14:39;99151.31;;;10.61;73.95
34177;BME280;20450;49.074;9.158;2023-03-25T00:17:07;99150.84;;;10.64;72.83
34177;BME280;20450;49.074;9.158;2023-03-25T00:19:35;99154.84;;;10.62;73.67
34177;BME280;20450;49.074;9.158;2023-03-25T00:22:02;99148.47;;;10.56;73.38
34177;BME280;20450;49.074;9.158;2023-03-25T00:24:29;99142.41;;;10.43;72.46
34177;BME280;20450;49.074;9.158;2023-03-25T00:26:55;99146.28;;;10.65;70.57
34177;BME280;20450;49.074;9.158;2023-03-25T00:29:22;99145.78;;;10.56;71.79
34177;BME280;20450;49.074;9.158;2023-03-25T00:31:49;99142.69;;;10.53;71.76
34177;BME280;20450;49.074;9.158;2023-03-25T00:34:16;99132.94;;;10.52;73.05
34177;BME280;20450;49.074;9.158;2023-03-25T00:36:44;99137.69;;;10.56;72.04
34177;BME280;20450;49.074;9.158;2023-03-25T00:39:11;99136.22;;;10.72;71.95
34177;BME280;20450;49.074;9.158;2023-03-25T00:41:38;99141.09;;;10.63;71.84
34177;BME280;20450;49.074;9.158;2023-03-25T00:44:05;99145.22;;;10.66;71.66
34177;BME280;20450;49.074;9.158;2023-03-25T00:46:32;99137.94;;;10.66;71.42
34177;BME280;20450;49.074;9.158;2023-03-25T00:49:00;99129.50;;;10.74;71.96
34177;BME280;20450;49.074;9.158;2023-03-25T00:51:28;99125.50;;;10.65;71.47
34177;BME280;20450;49.074;9.158;2023-03-25T00:53:57;99137.22;;;10.59;70.52
34177;BME280;20450;49.074;9.158;2023-03-25T00:56:26;99125.97;;;10.62;71.04
34177;BME280;20450;49.074;9.158;2023-03-25T00:58:54;99125.75;;;10.64;71.19
34177;BME280;20450;49.074;9.158;2023-03-25T01:01:24;99132.84;;;10.58;71.65
34177;BME280;20450;49.074;9.158;2023-03-25T01:03:53;99128.53;;;10.39;71.81
34177;BME280;20450;49.074;9.158;2023-03-25T01:06:21;99126.81;;;10.27;72.37
34177;BME280;20450;49.074;9.158;2023-03-25T01:08:51;99126.94;;;10.14;72.92
34177;BME280;20450;49.074;9.158;2023-03-25T01:11:22;99110.25;;;9.98;73.29
34177;BME280;20450;49.074;9.158;2023-03-25T01:13:52;99105.22;;;10.09;73.77
34177;BME280;20450;49.074;9.158;2023-03-25T01:16:20;99107.72;;;10.03;72.87
34177;BME280;20450;49.074;9.158;2023-03-25T01:18:47;99116.28;;;10.00;73.37
34177;BME280;20450;49.074;9.158;2023-03-25T01:21:14;99111.66;;;10.08;73.11
34177;BME280;20450;49.074;9.158;2023-03-25T01:23:42;99115.56;;;10.12;73.32
34177;BME280;20450;49.074;9.158;2023-03-25T01:26:09;99115.19;;;10.08;72.60
34177;BME280;20450;49.074;9.158;2023-03-25T01:28:39;99114.53;;;10.06;72.04
34177;BME280;20450;49.074;9.158;2023-03-25T01:31:08;99106.66;;;10.11;71.47
34177;BME280;20450;49.074;9.158;2023-03-25T01:33:36;99105.88;;;10.04;72.38
34177;BME280;20450;49.074;9.158;2023-03-25T01:36:04;99107.47;;;9.69;75.20
34177;BME280;20450;49.074;9.158;2023-03-25T01:38:33;99105.94;;;9.55;76.58
34177;BME280;20450;49.074;9.158;2023-03-25T01:41:00;99098.44;;;9.57;76.27
34177;BME280;20450;49.074;9.158;2023-03-25T01:43:26;99087.22;;;9.60;75.53
34177;BME280;20450;49.074;9.158;2023-03-25T01:45:55;99099.34;;;9.51;76.16
34177;BME280;20450;49.074;9.158;2023-03-25T01:48:25;99101.03;;;9.88;74.91
34177;BME280;20450;49.074;9.158;2023-03-25T01:50:59;99105.41;;;9.89;75.38
34177;BME280;20450;49.074;9.158;2023-03-25T01:53:31;99099.84;;;9.84;75.67
34177;BME280;20450;49.074;9.158;2023-03-25T01:56:00;99089.41;;;9.69;75.72
34177;BME280;20450;49.074;9.158;2023-03-25T01:58:32;99088.91;;;9.79;74.90
34177;BME280;20450;49.074;9.158;2023-03-25T02:01:03;99082.06;;;9.76;74.96
34177;BME280;20450;49.074;9.158;2023-03-25T02:03:30;99079.16;;;9.78;74.98
34177;BME280;20450;49.074;9.158;2023-03-25T02:06:00;99070.03;;;9.97;73.48
34177;BME280;20450;49.074;9.158;2023-03-25T02:08:32;99064.56;;;10.03;73.04
34177;BME280;20450;49.074;9.158;2023-03-25T02:11:03;99065.09;;;10.12;72.20
34177;BME280;20450;49.074;9.158;2023-03-25T02:13:31;99087.00;;;10.22;71.73
34177;BME280;20450;49.074;9.158;2023-03-25T02:16:19;99091.25;;;10.30;72.01
34177;BME280;20450;49.074;9.158;2023-03-25T02:19:04;99107.53;;;10.41;71.78
34177;BME280;20450;49.074;9.158;2023-03-25T02:22:07;99122.22;;;10.45;73.23
34177;BME280;20450;49.074;9.158;2023-03-25T02:25:14;99145.31;;;10.59;72.10
34177;BME280;20450;49.074;9.158;2023-03-25T02:28:01;99137.06;;;10.36;73.41
34177;BME280;20450;49.074;9.158;2023-03-25T02:30:52;99125.88;;;10.51;76.11
34177;BME280;20450;49.074;9.158;2023-03-25T02:33:57;99142.63;;;10.41;71.10
34177;BME280;20450;49.074;9.158;2023-03-25T02:36:50;99155.78;;;10.67;71.81
34177;BME280;20450;49.074;9.158;2023-03-25T02:39:33;99152.78;;;10.75;70.05
34177;BME280;20450;49.074;9.158;2023-03-25T02:42:13;99150.78;;;10.17;71.19
34177;BME280;20450;49.074;9.158;2023-03-25T02:44:51;99130.25;;;9.91;70.75
34177;BME280;20450;49.074;9.158;2023-03-25T02:47:24;99141.72;;;10.11;74.05
34177;BME280;20450;49.074;9.158;2023-03-25T02:49:57;99153.34;;;9.87;70.57
34177;BME280;20450;49.074;9.158;2023-03-25T02:52:31;99164.63;;;10.27;70.27
34177;BME280;20450;49.074;9.158;2023-03-25T02:55:06;99154.03;;;10.07;70.07
34177;BME280;20450;49.074;9.158;2023-03-25T02:57:39;99124.16;;;10.02;71.38
34177;BME280;20450;49.074;9.158;2023-03-25T03:00:12;99097.56;;;9.63;71.14
34177;BME280;20450;49.074;9.158;2023-03-25T03:02:45;99090.56;;;9.55;71.63
34177;BME280;20450;49.074;9.158;2023-03-25T03:05:24;99099.41;;;9.44;72.66
34177;BME280;20450;49.074;9.158;2023-03-25T03:07:57;99096.97;;;9.61;70.67
34177;BME280;20450;49.074;9.158;2023-03-25T03:10:40;99087.34;;;9.47;70.29
34177;BME280;20450;49.074;9.158;2023-03-25T03:13:20;99094.28;;;9.12;70.50
34177;BME280;20450;49.074;9.158;2023-03-25T03:16:04;99102.53;;;9.17;71.78
34177;BME280;20450;49.074;9.158;2023-03-25T03:18:43;99093.88;;;9.08;71.20
34177;BME280;20450;49.074;9.158;2023-03-25T03:21:19;99101.53;;;8.80;72.98
34177;BME280;20450;49.074;9.158;2023-03-25T03:23:56;99102.72;;;8.60;73.29
34177;BME280;20450;49.074;9.158;2023-03-25T03:26:36;99085.50;;;8.61;73.46
34177;BME280;20450;49.074;9.158;2023-03-25T03:29:11;99102.50;;;8.61;74.19
34177;BME280;20450;49.074;9.158;2023-03-25T03:31:45;99102.91;;;8.58;74.91
34177;BME280;20450;49.074;9.158;2023-03-25T03:34:37;99109.75;;;8.54;75.15
34177;BME280;20450;49.074;9.158;2023-03-25T03:37:14;99113.25;;;8.61;74.75
34177;BME280;20450;49.074;9.158;2023-03-25T03:39:47;99126.53;;;8.56;75.68
34177;BME280;20450;49.074;9.158;2023-03-25T03:42:23;99128.16;;;8.64;76.12
34177;BME280;20450;49.074;9.158;2023-03-25T03:44:59;99144.50;;;8.62;75.43
34177;BME280;20450;49.074;9.158;2023-03-25T03:47:35;99126.72;;;8.61;75.45
34177;BME280;20450;49.074;9.158;2023-03-25T03:50:11;99144.94;;;8.66;76.66
34177;BME280;20450;49.074;9.158;2023-03-25T03:52:44;99145.81;;;8.53;75.58
34177;BME280;20450;49.074;9.158;2023-03-25T03:55:21;99151.94;;;8.67;75.13
34177;BME280;20450;49.074;9.158;2023-03-25T03:57:56;99148.38;;;8.79;75.26
34177;BME280;20450;49.074;9.158;2023-03-25T04:00:29;99151.06;;;8.79;74.93
34177;BME280;20450;49.074;9.158;2023-03-25T04:03:05;99163.38;;;9.00;74.35
34177;BME280;20450;49.074;9.158;2023-03-25T04:05:38;99170.16;;;9.09;73.05
34177;BME280;20450;49.074;9.158;2023-03-25T04:08:11;99172.25;;;9.07;74.00
34177;BME280;20450;49.074;9.158;2023-03-25T04:10:49;99170.66;;;8.93;73.72
34177;BME280;20450;49.074;9.158;2023-03-25T04:13:22;99177.94;;;8.86;73.91
34177;BME280;20450;49.074;9.158;2023-03-25T04:15:56;99176.72;;;8.82;74.45
34177;BME280;20450;49.074;9.158;2023-03-25T04:18:23;99173.50;;;8.67;75.11
34177;BME280;20450;49.074;9.158;2023-03-25T04:20:50;99172.41;;;8.81;73.45
34177;BME280;20450;49.074;9.158;2023-03-25T04:23:17;99169.41;;;8.95;72.91
34177;BME280;20450;49.074;9.158;2023-03-25T04:25:44;99172.41;;;9.12;72.32
34177;BME280;20450;49.074;9.158;2023-03-25T04:28:11;99159.59;;;9.07;71.79
34177;BME280;20450;49.074;9.158;2023-03-25T04:30:39;99165.22;;;8.99;72.74
34177;BME280;20450;49.074;9.158;2023-03-25T04:33:07;99156.25;;;8.81;73.47
34177;BME280;20450;49.074;9.158;2023-03-25T04:35:34;99157.44;;;8.85;73.66
34177;BME280;20450;49.074;9.158;2023-03-25T04:38:01;99149.19;;;8.80;72.30
34177;BME280;20450;49.074;9.158;2023-03-25T04:40:28;99155.63;;;9.10;71.94
34177;BME280;20450;49.074;9.158;2023-03-25T04:42:55;99159.75;;;9.12;72.75
34177;BME280;20450;49.074;9.158;2023-03-25T04:45:22;99155.38;;;9.18;71.88
34177;BME280;20450;49.074;9.158;2023-03-25T04:47:52;99156.59;;;9.46;69.46
34177;BME280;20450;49.074;9.158;2023-03-25T04:50:21;99155.56;;;9.47;68.92
34177;BME280;20450;49.074;9.158;2023-03-25T04:52:50;99160.09;;;9.53;68.48
34177;BME280;20450;49.074;9.158;2023-03-25T04:55:18;99159.81;;;9.61;70.74
34177;BME280;20450;49.074;9.158;2023-03-25T04:57:47;99162.56;;;9.55;68.80
34177;BME280;20450;49.074;9.158;2023-03-25T05:00:17;99166.81;;;9.44;70.37
34177;BME280;20450;49.074;9.158;2023-03-25T05:02:48;99166.81;;;9.44;69.01
34177;BME280;20450;49.074;9.158;2023-03-25T05:05:19;99170.53;;;9.43;69.07
34177;BME280;20450;49.074;9.158;2023-03-25T05:07:49;99179.03;;;9.40;69.03
34177;BME280;20450;49.074;9.158;2023-03-25T05:10:18;99174.16;;;9.31;69.82
34177;BME280;20450;49.074;9.158;2023-03-25T05:12:48;99163.91;;;9.15;70.55
34177;BME280;20450;49.074;9.158;2023-03-25T05:15:16;99166.44;;;9.03;71.42
34177;BME280;20450;49.074;9.158;2023-03-25T05:17:43;99163.47;;;9.18;70.95
34177;BME280;20450;49.074;9.158;2023-03-25T05:20:11;99153.13;;;9.15;71.16
34177;BME280;20450;49.074;9.158;2023-03-25T05:22:39;99164.78;;;9.09;71.09
34177;BME280;20450;49.074;9.158;2023-03-25T05:25:08;99174.50;;;9.10;71.60
34177;BME280;20450;49.074;9.158;2023-03-25T05:27:37;99178.47;;;9.07;71.85
34177;BME280;20450;49.074;9.158;2023-03-25T05:30:06;99179.53;;;9.00;71.71
34177;BME280;20450;49.074;9.158;2023-03-25T05:32:34;99177.28;;;8.97;71.67
34177;BME280;20450;49.074;9.158;2023-03-25T05:35:02;99183.44;;;9.04;71.53
34177;BME280;20450;49.074;9.158;2023-03-25T05:37:29;99169.66;;;8.87;72.57
34177;BME280;20450;49.074;9.158;2023-03-25T05:39:58;99179.94;;;8.59;73.79
34177;BME280;20450;49.074;9.158;2023-03-25T05:42:25;99169.63;;;8.50;74.78
34177;BME280;20450;49.074;9.158;2023-03-25T05:44:52;99184.97;;;8.49;74.62
34177;BME280;20450;49.074;9.158;2023-03-25T05:47:21;99185.97;;;8.55;74.68
34177;BME280;20450;49.074;9.158;2023-03-25T05:49:51;99184.91;;;8.62;74.58
34177;BME280;20450;49.074;9.158;2023-03-25T05:52:19;99191.06;;;8.76;72.98
34177;BME280;20450;49.074;9.158;2023-03-25T05:54:46;99189.34;;;8.81;73.08
34177;BME280;20450;49.074;9.158;2023-03-25T05:57:14;99202.59;;;8.89;72.36
34177;BME280;20450;49.074;9.158;2023-03-25T05:59:42;99199.19;;;9.07;70.12
34177;BME280;20450;49.074;9.158;2023-03-25T06:02:11;99196.84;;;9.17;70.47
34177;BME280;20450;49.074;9.158;2023-03-25T06:04:39;99203.06;;;9.17;69.90
34177;BME280;20450;49.074;9.158;2023-03-25T06:07:07;99210.84;;;9.32;69.45
34177;BME280;20450;49.074;9.158;2023-03-25T06:09:34;99215.19;;;9.33;68.68
34177;BME280;20450;49.074;9.158;2023-03-25T06:12:01;99205.19;;;9.40;68.34
34177;BME280;20450;49.074;9.158;2023-03-25T06:14:30;99207.81;;;9.46;68.43
34177;BME280;20450;49.074;9.158;2023-03-25T06:16:57;99200.97;;;9.50;67.34
34177;BME280;20450;49.074;9.158;2023-03-25T06:19:23;99224.50;;;9.61;67.71
34177;BME280;20450;49.074;9.158;2023-03-25T06:21:51;99218.25;;;9.67;67.79
34177;BME280;20450;49.074;9.158;2023-03-25T06:24:17;99210.34;;;9.72;67.04
34177;BME280;20450;49.074;9.158;2023-03-25T06:26:44;99216.44;;;9.86;66.69
34177;BME280;20450;49.074;9.158;2023-03-25T06:29:11;99217.81;;;9.95;66.57
34177;BME280;20450;49.074;9.158;2023-03-25T06:31:39;99226.69;;;10.02;66.66
34177;BME280;20450;49.074;9.158;2023-03-25T06:34:06;99218.13;;;10.05;65.82
34177;BME280;20450;49.074;9.158;2023-03-25T06:36:33;99211.78;;;9.99;65.94
34177;BME280;20450;49.074;9.158;2023-03-25T06:39:00;99209.41;;;10.10;65.62
34177;BME280;20450;49.074;9.158;2023-03-25T06:41:28;99215.66;;;10.10;65.76
34177;BME280;20450;49.074;9.158;2023-03-25T06:44:09;99227.06;;;10.06;66.46
34177;BME280;20450;49.074;9.158;2023-03-25T06:46:46;99219.97;;;10.11;67.28
34177;BME280;20450;49.074;9.158;2023-03-25T06:49:26;99226.56;;;10.15;69.10
34177;BME280;20450;49.074;9.158;2023-03-25T06:51:54;99220.44;;;10.08;69.75
34177;BME280;20450;49.074;9.158;2023-03-25T06:54:21;99224.19;;;10.07;69.26
34177;BME280;20450;49.074;9.158;2023-03-25T06:56:48;99222.91;;;10.10;69.68
34177;BME280;20450;49.074;9.158;2023-03-25T06:59:15;99222.03;;;10.16;70.21
34177;BME280;20450;49.074;9.158;2023-03-25T07:01:42;99223.53;;;10.12;70.47
34177;BME280;20450;49.074;9.158;2023-03-25T07:04:10;99223.66;;;9.92;69.53
34177;BME280;20450;49.074;9.158;2023-03-25T07:06:38;99223.75;;;10.03;70.49
34177;BME280;20450;49.074;9.158;2023-03-25T07:09:15;99223.13;;;10.08;70.29
34177;BME280;20450;49.074;9.158;2023-03-25T07:11:44;99217.38;;;9.98;68.74
34177;BME280;20450;49.074;9.158;2023-03-25T07:14:11;99232.50;;;9.99;70.24
34177;BME280;20450;49.074;9.158;2023-03-25T07:16:38;99241.56;;;10.11;69.23
34177;BME280;20450;49.074;9.158;2023-03-25T07:19:05;99242.50;;;10.23;69.44
34177;BME280;20450;49.074;9.158;2023-03-25T07:21:33;99237.41;;;10.33;69.38
34177;BME280;20450;49.074;9.158;2023-03-25T07:24:09;99235.59;;;10.27;68.70
34177;BME280;20450;49.074;9.158;2023-03-25T07:26:43;99231.03;;;10.03;69.75
34177;BME280;20450;49.074;9.158;2023-03-25T07:29:33;99234.00;;;9.95;70.39
34177;BME280;20450;49.074;9.158;2023-03-25T07:32:25;99229.41;;;9.95;70.53
34177;BME280;20450;49.074;9.158;2023-03-25T07:34:56;99222.13;;;10.02;69.87
34177;BME280;20450;49.074;9.158;2023-03-25T07:37:54;99222.47;;;10.06;69.63
34177;BME280;20450;49.074;9.158;2023-03-25T07:40:47;99224.22;;;9.76;70.88
34177;BME280;20450;49.074;9.158;2023-03-25T07:43:25;99224.28;;;9.63;70.69
34177;BME280;20450;49.074;9.158;2023-03-25T07:47:04;99232.53;;;9.74;71.39
34177;BME280;20450;49.074;9.158;2023-03-25T07:49:35;99216.56;;;9.97;71.18
34177;BME280;20450;49.074;9.158;2023-03-25T07:52:11;99226.06;;;10.00;70.20
34177;BME280;20450;49.074;9.158;2023-03-25T07:54:52;99215.44;;;10.05;69.63
34177;BME280;20450;49.074;9.158;2023-03-25T07:57:41;99215.66;;;10.28;68.88
34177;BME280;20450;49.074;9.158;2023-03-25T08:00:11;99210.63;;;10.32;68.25
34177;BME280;20450;49.074;9.158;2023-03-25T08:02:39;99208.78;;;10.32;68.23
34177;BME280;20450;49.074;9.158;2023-03-25T08:05:07;99214.53;;;10.36;69.43
34177;BME280;20450;49.074;9.158;2023-03-25T08:07:35;99211.97;;;10.23;68.31
34177;BME280;20450;49.074;9.158;2023-03-25T08:10:03;99207.81;;;10.27;67.33
34177;BME280;20450;49.074;9.158;2023-03-25T08:12:31;99207.72;;;10.33;67.94
34177;BME280;20450;49.074;9.158;2023-03-25T08:14:58;99202.84;;;10.42;68.24
34177;BME280;20450;49.074;9.158;2023-03-25T08:17:25;99203.16;;;10.52;67.65
34177;BME280;20450;49.074;9.158;2023-03-25T08:19:52;99217.19;;;10.60;67.48
34177;BME280;20450;49.074;9.158;2023-03-25T08:22:19;99204.69;;;10.77;67.26
34177;BME280;20450;49.074;9.158;2023-03-25T08:24:46;99195.09;;;10.99;65.53
34177;BME280;20450;49.074;9.158;2023-03-25T08:27:15;99195.50;;;11.14;65.50
34177;BME280;20450;49.074;9.158;2023-03-25T08:29:42;99188.88;;;11.40;65.29
34177;BME280;20450;49.074;9.158;2023-03-25T08:32:09;99187.16;;;11.57;63.93
34177;BME280;20450;49.074;9.158;2023-03-25T08:34:36;99187.72;;;11.47;63.24
34177;BME280;20450;49.074;9.158;2023-03-25T08:37:03;99191.63;;;11.51;63.97
34177;BME280;20450;49.074;9.158;2023-03-25T08:39:30;99199.19;;;11.72;63.23
34177;BME280;20450;49.074;9.158;2023-03-25T08:41:57;99192.28;;;11.76;62.14
34177;BME280;20450;49.074;9.158;2023-03-25T08:44:25;99192.28;;;12.00;62.57
34177;BME280;20450;49.074;9.158;2023-03-25T08:46:52;99182.06;;;12.02;61.51
34177;BME280;20450;49.074;9.158;2023-03-25T08:49:19;99178.44;;;11.55;64.21
34177;BME280;20450;49.074;9.158;2023-03-25T08:51:46;99173.41;;;11.58;63.20
34177;BME280;20450;49.074;9.158;2023-03-25T08:54:13;99164.84;;;11.73;62.76
34177;BME280;20450;49.074;9.158;2023-03-25T08:56:42;99165.00;;;11.78;62.06
34177;BME280;20450;49.074;9.158;2023-03-25T08:59:08;99157.03;;;11.42;61.46
34177;BME280;20450;49.074;9.158;2023-03-25T09:01:37;99155.50;;;11.46;60.89
34177;BME280;20450;49.074;9.158;2023-03-25T09:04:04;99174.75;;;10.79;65.07
34177;BME280;20450;49.074;9.158;2023-03-25T09:06:31;99207.56;;;10.82;68.35
34177;BME280;20450;49.074;9.158;2023-03-25T09:09:18;99198.78;;;10.87;67.61
34177;BME280;20450;49.074;9.158;2023-03-25T09:11:45;99216.28;;;10.84;68.64
34177;BME280;20450;49.074;9.158;2023-03-25T09:14:12;99220.16;;;10.88;68.32
34177;BME280;20450;49.074;9.158;2023-03-25T09:20:57;99209.09;;;11.37;66.17
34177;BME280;20450;49.074;9.158;2023-03-25T09:23:25;99210.16;;;11.66;66.10
34177;BME280;20450;49.074;9.158;2023-03-25T09:25:52;99203.63;;;11.55;64.75
34177;BME280;20450;49.074;9.158;2023-03-25T09:28:19;99201.91;;;11.72;65.23
34177;BME280;20450;49.074;9.158;2023-03-25T09:30:46;99208.94;;;11.32;63.19
34177;BME280;20450;49.074;9.158;2023-03-25T09:33:12;99203.63;;;11.55;63.93
34177;BME280;20450;49.074;9.158;2023-03-25T09:35:40;99204.16;;;11.75;64.11
34177;BME280;20450;49.074;9.158;2023-03-25T09:38:08;99201.34;;;11.93;63.26
34177;BME280;20450;49.074;9.158;2023-03-25T09:40:35;99215.72;;;11.82;64.69
34177;BME280;20450;49.074;9.158;2023-03-25T09:43:07;99210.50;;;12.62;62.36
34177;BME280;20450;49.074;9.158;2023-03-25T09:45:50;99210.56;;;13.01;61.48
34177;BME280;20450;49.074;9.158;2023-03-25T09:48:25;99207.63;;;12.80;59.94
34177;BME280;20450;49.074;9.158;2023-03-25T09:50:59;99201.28;;;12.74;61.56
34177;BME280;20450;49.074;9.158;2023-03-25T09:53:35;99210.13;;;12.70;61.78
34177;BME280;20450;49.074;9.158;2023-03-25T09:56:13;99214.63;;;12.64;61.43
34177;BME280;20450;49.074;9.158;2023-03-25T09:58:44;99204.78;;;12.12;62.47
34177;BME280;20450;49.074;9.158;2023-03-25T10:01:20;99201.00;;;12.02;63.52
34177;BME280;20450;49.074;9.158;2023-03-25T10:04:09;99205.13;;;11.81;63.86
34177;BME280;20450;49.074;9.158;2023-03-25T10:06:56;99215.00;;;11.87;65.52
34177;BME280;20450;49.074;9.158;2023-03-25T10:09:45;99223.16;;;11.57;67.93
34177;BME280;20450;49.074;9.158;2023-03-25T10:12:30;99219.34;;;11.76;67.53
34177;BME280;20450;49.074;9.158;2023-03-25T10:15:13;99226.78;;;12.50;65.26
34177;BME280;20450;49.074;9.158;2023-03-25T10:17:58;99223.50;;;13.39;62.09
34177;BME280;20450;49.074;9.158;2023-03-25T10:20:51;99220.03;;;13.27;61.02
34177;BME280;20450;49.074;9.158;2023-03-25T10:23:33;99213.22;;;13.13;61.83
34177;BME280;20450;49.074;9.158;2023-03-25T10:26:11;99211.25;;;12.97;62.95
34177;BME280;20450;49.074;9.158;2023-03-25T10:28:48;99216.97;;;12.72;62.18
34177;BME280;20450;49.074;9.158;2023-03-25T10:31:25;99228.91;;;12.48;64.26
34177;BME280;20450;49.074;9.158;2023-03-25T10:33:57;99215.94;;;12.16;64.77
34177;BME280;20450;49.074;9.158;2023-03-25T10:36:32;99215.63;;;12.01;66.59
34177;BME280;20450;49.074;9.158;2023-03-25T10:39:10;99220.00;;;12.87;64.29
34177;BME280;20450;49.074;9.158;2023-03-25T10:41:46;99220.72;;;12.83;64.22
34177;BME280;20450;49.074;9.158;2023-03-25T10:44:20;99207.44;;;13.82;59.96
34177;BME280;20450;49.074;9.158;2023-03-25T10:46:54;99199.56;;;14.68;57.26
34177;BME280;20450;49.074;9.158;2023-03-25T10:49:26;99191.06;;;14.65;56.54
34177;BME280;20450;49.074;9.158;2023-03-25T10:51:55;99184.66;;;15.19;55.63
34177;BME280;20450;49.074;9.158;2023-03-25T10:54:26;99182.53;;;15.47;54.59
34177;BME280;20450;49.074;9.158;2023-03-25T10:57:00;99179.19;;;14.71;55.54
34177;BME280;20450;49.074;9.158;2023-03-25T10:59:34;99180.22;;;14.27;57.83
34177;BME280;20450;49.074;9.158;2023-03-25T11:02:12;99168.19;;;14.61;56.88
34177;BME280;20450;49.074;9.158;2023-03-25T11:04:45;99167.94;;;14.62;57.53
34177;BME280;20450;49.074;9.158;2023-03-25T11:07:17;99159.63;;;14.52;57.88
34177;BME280;20450;49.074;9.158;2023-03-25T11:09:48;99160.75;;;14.18;57.67
34177;BME280;20450;49.074;9.158;2023-03-25T11:12:19;99173.94;;;13.60;59.71
34177;BME280;20450;49.074;9.158;2023-03-25T11:15:04;99156.09;;;13.47;57.66
34177;BME280;20450;49.074;9.158;2023-03-25T11:17:34;99165.25;;;14.67;56.37
34177;BME280;20450;49.074;9.158;2023-03-25T11:20:05;99163.47;;;15.47;52.98
34177;BME280;20450;49.074;9.158;2023-03-25T11:22:46;99149.25;;;16.04;51.16
34177;BME280;20450;49.074;9.158;2023-03-25T11:25:19;99149.09;;;16.67;49.35
34177;BME280;20450;49.074;9.158;2023-03-25T11:27:55;99133.94;;;16.39;48.16
34177;BME280;20450;49.074;9.158;2023-03-25T11:30:25;99148.03;;;16.73;47.47
34177;BME280;20450;49.074;9.158;2023-03-25T11:32:57;99123.00;;;15.93;48.89
34177;BME280;20450;49.074;9.158;2023-03-25T11:35:27;99117.78;;;15.49;49.49
34177;BME280;20450;49.074;9.158;2023-03-25T11:37:58;99147.38;;;15.19;50.63
34177;BME280;20450;49.074;9.158;2023-03-25T11:40:28;99129.66;;;14.90;49.90
34177;BME280;20450;49.074;9.158;2023-03-25T11:42:59;99136.03;;;15.27;48.63
34177;BME280;20450;49.074;9.158;2023-03-25T11:45:32;99139.53;;;15.23;48.80
34177;BME280;20450;49.074;9.158;2023-03-25T11:48:09;99142.81;;;14.55;49.91
34177;BME280;20450;49.074;9.158;2023-03-25T11:50:43;99141.44;;;14.31;50.18
34177;BME280;20450;49.074;9.158;2023-03-25T11:53:15;99145.31;;;15.05;48.40
34177;BME280;20450;49.074;9.158;2023-03-25T11:55:45;99138.19;;;15.84;47.52
34177;BME280;20450;49.074;9.158;2023-03-25T11:58:18;99147.84;;;16.38;46.15
34177;BME280;20450;49.074;9.158;2023-03-25T12:00:49;99133.75;;;16.51;46.74
34177;BME280;20450;49.074;9.158;2023-03-25T12:03:19;99113.41;;;15.80;48.30
34177;BME280;20450;49.074;9.158;2023-03-25T12:05:58;99127.03;;;16.22;48.51
34177;BME280;20450;49.074;9.158;2023-03-25T12:08:39;99128.69;;;16.28;48.37
34177;BME280;20450;49.074;9.158;2023-03-25T12:11:11;99112.25;;;15.76;46.38
34177;BME280;20450;49.074;9.158;2023-03-25T12:14:07;99121.19;;;16.03;45.64
34177;BME280;20450;49.074;9.158;2023-03-25T12:16:54;99099.41;;;15.66;46.47
34177;BME280;20450;49.074;9.158;2023-03-25T12:19:33;99108.22;;;15.84;46.51
34177;BME280;20450;49.074;9.158;2023-03-25T12:22:19;99101.75;;;17.03;44.54
34177;BME280;20450;49.074;9.158;2023-03-25T12:25:06;99116.13;;;16.22;45.46
34177;BME280;20450;49.074;9.158;2023-03-25T12:27:52;99103.50;;;16.52;45.68
34177;BME280;20450;49.074;9.158;2023-03-25T12:30:44;99127.19;;;15.68;46.84
34177;BME280;20450;49.074;9.158;2023-03-25T12:33:34;99144.66;;;15.19;48.73
34177;BME280;20450;49.074;9.158;2023-03-25T12:36:19;99154.34;;;14.62;50.29
34177;BME280;20450;49.074;9.158;2023-03-25T12:39:08;99157.72;;;14.15;51.81
34177;BME280;20450;49.074;9.158;2023-03-25T12:42:20;99170.44;;;13.76;53.60
34177;BME280;20450;49.074;9.158;2023-03-25T12:45:05;99177.91;;;14.02;54.60
34177;BME280;20450;49.074;9.158;2023-03-25T12:47:54;99168.09;;;14.34;54.80
34177;BME280;20450;49.074;9.158;2023-03-25T12:50:33;99154.63;;;14.66;54.80
34177;BME280;20450;49.074;9.158;2023-03-25T12:53:19;99132.63;;;14.67;53.97
34177;BME280;20450;49.074;9.158;2023-03-25T12:56:06;99155.16;;;14.63;53.89
34177;BME280;20450;49.074;9.158;2023-03-25T12:59:01;99156.91;;;14.52;53.62
34177;BME280;20450;49.074;9.158;2023-03-25T13:01:49;99142.78;;;14.50;53.58
34177;BME280;20450;49.074;9.158;2023-03-25T13:04:37;99130.69;;;14.84;54.04
34177;BME280;20450;49.074;9.158;2023-03-25T13:07:16;99151.28;;;15.02;52.84
34177;BME280;20450;49.074;9.158;2023-03-25T13:09:53;99153.81;;;15.08;51.57
34177;BME280;20450;49.074;9.158;2023-03-25T13:12:31;99154.41;;;14.89;50.58
34177;BME280;20450;49.074;9.158;2023-03-25T13:15:10;99144.66;;;14.50;52.19
34177;BME280;20450;49.074;9.158;2023-03-25T13:17:54;99141.19;;;14.54;52.80
34177;BME280;20450;49.074;9.158;2023-03-25T13:20:29;99129.38;;;14.65;52.37
34177;BME280;20450;49.074;9.158;2023-03-25T13:23:03;99130.44;;;14.64;50.60
34177;BME280;20450;49.074;9.158;2023-03-25T13:25:41;99130.94;;;14.61;50.37
34177;BME280;20450;49.074;9.158;2023-03-25T13:28:18;99129.56;;;14.37;49.77
34177;BME280;20450;49.074;9.158;2023-03-25T13:30:50;99112.28;;;14.48;50.76
34177;BME280;20450;49.074;9.158;2023-03-25T13:33:19;99119.22;;;14.82;51.87
34177;BME280;20450;49.074;9.158;2023-03-25T13:35:52;99122.66;;;14.73;46.95
34177;BME280;20450;49.074;9.158;2023-03-25T13:38:27;99130.00;;;14.72;46.38
34177;BME280;20450;49.074;9.158;2023-03-25T13:41:08;99144.41;;;14.30;48.01
34177;BME280;20450;49.074;9.158;2023-03-25T13:43:44;99142.97;;;14.27;48.35